Data for 03/16/2014

Time Sea-Level Adjusted Pressure Absolute Pressure Temperature Relative Humidity Dew Point   
(mb) (inHg) (mb) (inHg) (C) (F) (%) (C) (F)
00:05 1025 30.27 854 25.22 2.4 36.4 58 -4.9 23.1
00:10 1025 30.27 854 25.22 2.7 36.8 58 -4.8 23.3
00:15 1025 30.27 854 25.22 2.9 37.2 57 -4.9 23.2
00:20 1025 30.27 854 25.22 3 37.3 57 -4.7 23.5
00:25 1025 30.27 854 25.22 2.8 37.1 58 -4.6 23.6
00:30 1025 30.27 854 25.22 2.8 37 58 -4.7 23.5
00:35 1025 30.27 854 25.22 2.6 36.7 59 -4.6 23.8
00:40 1025 30.27 854 25.22 2.3 36.2 61 -4.5 23.9
00:45 1025 30.27 854 25.22 2.1 35.7 62 -4.4 24.1
00:50 1025 30.27 854 25.22 1.8 35.2 63 -4.5 23.9
00:55 1025 30.27 854 25.22 1.7 35.1 63 -4.6 23.8
01:00 1025 30.27 854 25.22 1.8 35.3 60 -5.1 22.8
01:05 1025 30.27 854 25.22 2.3 36.1 60 -4.8 23.4
01:10 1025 30.27 854 25.22 2.4 36.3 58 -5 23
01:15 1025 30.27 854 25.22 2.6 36.6 57 -5.1 22.9
01:20 1025 30.27 854 25.22 2.7 36.9 56 -5.3 22.5
01:25 1025 30.27 854 25.22 3.1 37.5 54 -5.3 22.4
01:30 1025 30.27 854 25.22 3.2 37.7 54 -5.3 22.4
01:35 1025 30.27 854 25.22 3.2 37.7 54 -5.3 22.5
01:40 1025 30.27 854 25.22 3 37.4 54 -5.3 22.4
01:45 1025 30.27 854 25.22 2.9 37.2 55 -5.3 22.5
01:50 1025 30.27 854 25.22 2.7 36.9 56 -5.2 22.7
01:55 1025 30.27 854 25.22 2.5 36.6 57 -5.3 22.5
02:00 1025 30.27 854 25.22 2.4 36.3 57 -5.2 22.7
02:05 1025 30.27 854 25.22 2.3 36.2 57 -5.3 22.5
02:10 1025 30.27 854 25.22 2.2 36 58 -5.2 22.6
02:15 1025 30.27 854 25.22 2.1 35.8 57 -5.5 22.1
02:20 1025 30.27 854 25.22 2.1 35.8 57 -5.5 22.1
02:25 1025 30.27 854 25.22 2.1 35.8 56 -5.7 21.8
02:30 1024 30.24 854 25.22 2.3 36.1 55 -5.8 21.5
02:35 1024 30.24 853 25.19 2.5 36.4 55 -5.7 21.7
02:40 1024 30.24 853 25.19 2.5 36.6 54 -5.8 21.6
02:45 1024 30.24 853 25.19 2.5 36.5 55 -5.6 21.9
02:50 1024 30.24 853 25.19 2.4 36.3 55 -5.7 21.8
02:55 1024 30.24 853 25.19 2.4 36.3 55 -5.8 21.6
03:00 1024 30.24 853 25.19 2.5 36.6 52 -6.2 20.8
03:05 1024 30.24 853 25.19 3 37.3 51 -6.3 20.6
03:10 1024 30.24 853 25.19 3.1 37.6 50 -6.4 20.6
03:15 1024 30.24 853 25.19 3.3 38 48 -6.8 19.8
03:20 1024 30.24 853 25.19 3.7 38.7 47 -6.7 19.9
03:25 1024 30.24 853 25.19 3.8 38.9 46 -6.7 19.9
03:30 1024 30.24 853 25.19 3.9 39.1 44 -7.1 19.2
03:35 1024 30.24 853 25.19 4.1 39.4 45 -6.8 19.7
03:40 1024 30.24 853 25.19 4 39.1 47 -6.4 20.5
03:45 1024 30.24 853 25.19 3.6 38.5 48 -6.5 20.4
03:50 1024 30.24 853 25.19 3.4 38.1 48 -6.5 20.2
03:55 1024 30.24 853 25.19 3.3 37.9 49 -6.4 20.6
04:00 1024 30.24 853 25.19 3.1 37.6 50 -6.3 20.6
04:05 1024 30.24 853 25.19 3.3 37.9 45 -7.4 18.7
04:10 1023 30.21 853 25.19 4.1 39.4 44 -6.9 19.5
04:15 1023 30.21 853 25.19 4.1 39.3 47 -6.1 21
04:20 1023 30.21 853 25.19 3.3 37.9 51 -5.8 21.5
04:25 1023 30.21 852 25.16 2.2 35.9 53 -6.4 20.6
04:30 1023 30.21 852 25.16 1.9 35.5 55 -6.2 20.8
04:35 1023 30.21 852 25.16 1.5 34.8 57 -6.2 20.9
04:40 1023 30.21 852 25.16 1.4 34.5 49 -8.1 17.4
04:45 1023 30.21 852 25.16 2.3 36.1 51 -6.9 19.6
04:50 1023 30.21 852 25.16 2.5 36.5 47 -7.7 18.1
04:55 1023 30.21 852 25.16 3.7 38.6 43 -7.9 17.8
05:00 1023 30.21 852 25.16 3.6 38.5 47 -6.6 20
05:05 1023 30.21 852 25.16 2.8 37.1 47 -7.3 18.8
05:10 1023 30.21 852 25.16 2.8 37.1 48 -7 19.4
05:15 1023 30.21 852 25.16 2.2 36 52 -6.6 20.1
05:20 1023 30.21 852 25.16 2 35.6 49 -7.6 18.3
05:25 1023 30.21 852 25.16 2.8 37.1 44 -8.3 17.1
05:30 1023 30.21 852 25.16 3 37.3 45 -7.9 17.9
05:35 1023 30.21 852 25.16 3.1 37.5 43 -8.3 17.1
05:40 1023 30.21 852 25.16 3.2 37.8 44 -7.9 17.7
05:45 1023 30.21 852 25.16 2.9 37.3 46 -7.4 18.6
05:50 1023 30.21 852 25.16 2.3 36.2 50 -7.1 19.2
05:55 1022 30.18 852 25.16 2.1 35.8 47 -8 17.7
06:00 1022 30.18 851 25.13 2.9 37.3 43 -8.3 17
06:05 1022 30.18 851 25.13 3.2 37.8 46 -7.2 19
06:10 1022 30.18 851 25.13 2.9 37.3 42 -8.6 16.4
06:15 1022 30.18 851 25.13 3.5 38.3 40 -9 15.8
06:20 1022 30.18 851 25.13 3.8 38.8 41 -8.3 17
06:25 1022 30.18 851 25.13 3.4 38.1 46 -7.2 19.1
06:30 1022 30.18 851 25.13 2.8 37 45 -8.1 17.4
06:35 1022 30.18 851 25.13 3.5 38.4 36 -10.1 13.8
06:40 1022 30.18 851 25.13 4.9 40.8 33 -10 14
06:45 1022 30.18 851 25.13 5 41.1 34 -9.6 14.8
06:50 1022 30.18 851 25.13 5.1 41.1 37 -8.6 16.6
06:55 1022 30.18 851 25.13 4.5 40.1 40 -8.1 17.4
07:00 1022 30.18 851 25.13 4.3 39.8 38 -8.9 16
07:05 1022 30.18 851 25.13 4.9 40.8 36 -8.9 15.9
07:10 1022 30.18 851 25.13 5.2 41.4 36 -8.7 16.4
07:15 1022 30.18 851 25.13 4.8 40.6 37 -8.6 16.6
07:20 1022 30.18 851 25.13 4.7 40.5 38 -8.5 16.7
07:25 1022 30.18 851 25.13 4.7 40.5 39 -8.1 17.3
07:30 1021 30.15 851 25.13 4.5 40.1 40 -7.9 17.7
07:35 1021 30.15 851 25.13 4.1 39.5 43 -7.4 18.6
07:40 1021 30.15 851 25.13 3.9 39 41 -8.1 17.5
07:45 1021 30.15 851 25.13 4 39.2 42 -7.9 17.8
07:50 1022 30.18 851 25.13 4.2 39.5 42 -7.8 18
07:55 1021 30.15 851 25.13 4.5 40 39 -8.4 16.8
08:00 1021 30.15 851 25.13 5 41 37 -8.7 16.4
08:05 1021 30.15 851 25.13 5.2 41.4 34 -9.5 14.9
08:10 1021 30.15 851 25.13 6.1 42.9 33 -9 15.8
08:15 1022 30.18 851 25.13 6.4 43.6 32 -9 15.7
08:20 1022 30.18 851 25.13 6.8 44.3 32 -8.7 16.3
08:25 1022 30.18 851 25.13 7.3 45.1 31 -8.6 16.5
08:30 1022 30.18 851 25.13 7.2 45 33 -8.1 17.5
08:35 1021 30.15 851 25.13 7.1 44.8 34 -7.7 18.1
08:40 1021 30.15 851 25.13 7.2 44.9 36 -7 19.5
08:45 1021 30.15 851 25.13 6.9 44.4 36 -7 19.4
08:50 1021 30.15 850 25.1 7.4 45.3 33 -7.7 18.1
08:55 1021 30.15 850 25.1 7.9 46.2 32 -7.6 18.3
09:00 1021 30.15 850 25.1 8.2 46.8 32 -7.6 18.4
09:05 1021 30.15 850 25.1 8.9 48 29 -8.2 17.3
09:10 1021 30.15 850 25.1 9.6 49.3 30 -7.2 19
09:15 1021 30.15 850 25.1 9.8 49.6 29 -7.4 18.7
09:20 1021 30.15 850 25.1 9.7 49.4 29 -7.7 18.2
09:25 1021 30.15 850 25.1 9.6 49.3 30 -6.9 19.5
09:30 1021 30.15 850 25.1 9.7 49.4 28 -7.9 17.8
09:35 1021 30.15 850 25.1 10.1 50.2 27 -8 17.5
09:40 1021 30.15 850 25.1 10.2 50.4 27 -7.7 18.2
09:45 1021 30.15 850 25.1 10.3 50.5 28 -7.6 18.3
09:50 1021 30.15 850 25.1 10.6 51 28 -7.3 18.9
09:55 1021 30.15 850 25.1 10.6 51.1 28 -7 19.4
10:00 1021 30.15 850 25.1 10.8 51.5 28 -7.1 19.2
10:05 1021 30.15 850 25.1 11.3 52.3 28 -6.5 20.2
10:10 1021 30.15 850 25.1 11.6 52.8 26 -7.4 18.8
10:15 1021 30.15 850 25.1 12 53.5 26 -6.7 20
10:20 1020 30.12 849 25.07 11.6 52.9 27 -6.9 19.6
10:25 1020 30.12 849 25.07 11.4 52.6 26 -7.3 18.9
10:30 1020 30.12 849 25.07 11.7 53.1 25 -7.8 17.9
10:35 1020 30.12 849 25.07 12 53.5 24 -7.9 17.8
10:40 1020 30.12 849 25.07 12.1 53.8 23 -8.3 17
10:45 1020 30.12 849 25.07 12 53.6 25 -7.5 18.5
10:50 1020 30.12 849 25.07 11.9 53.5 25 -7.4 18.7
10:55 1020 30.12 849 25.07 12 53.6 27 -6.6 20
11:00 1020 30.12 849 25.07 12.4 54.4 24 -7.7 18.1
11:05 1020 30.12 849 25.07 12.9 55.2 23 -7.9 17.8
11:10 1020 30.12 849 25.07 12.6 54.6 22 -8.5 16.7
11:15 1020 30.12 849 25.07 12.6 54.6 23 -8 17.6
11:20 1020 30.12 849 25.07 12.6 54.8 21 -8.9 16.1
11:25 1020 30.12 849 25.07 12.8 55.1 23 -7.7 18.2
11:30 1020 30.12 849 25.07 12.4 54.4 20 -9.8 14.4
11:35 1020 30.12 849 25.07 12.3 54.1 21 -9.2 15.4
11:40 1020 30.12 849 25.07 12.7 54.8 23 -7.8 18
11:45 1019 30.09 849 25.07 12.4 54.4 21 -9.1 15.6
11:50 1020 30.12 849 25.07 12.6 54.6 23 -8.3 17.1
11:55 1020 30.12 849 25.07 12.4 54.3 21 -9.4 15.2
12:00 1020 30.12 849 25.07 12.4 54.3 21 -9.3 15.3
12:05 1020 30.12 849 25.07 12.4 54.2 23 -8.3 17
12:10 1020 30.12 849 25.07 12.4 54.4 22 -8.6 16.5
12:15 1019 30.09 849 25.07 12.6 54.6 22 -8.7 16.3
12:20 1019 30.09 849 25.07 12.3 54.1 23 -8.2 17.2
12:25 1019 30.09 849 25.07 12.4 54.3 24 -7.7 18.2
12:30 1019 30.09 848 25.04 12.5 54.5 22 -8.5 16.7
12:35 1019 30.09 848 25.04 12.3 54.2 23 -8.3 17
12:40 1019 30.09 848 25.04 12.5 54.4 23 -8.2 17.3
12:45 1019 30.09 848 25.04 12.6 54.6 22 -8.7 16.4
12:50 1019 30.09 848 25.04 12.6 54.7 24 -7.6 18.3
12:55 1019 30.09 848 25.04 12.4 54.3 22 -8.8 16.1
13:00 1019 30.09 848 25.04 12.9 55.1 23 -7.8 18
13:05 1018 30.06 848 25.04 12.9 55.3 23 -7.9 17.7
13:10 1018 30.06 847 25.01 13 55.5 23 -7.9 17.9
13:15 1018 30.06 847 25.01 12.9 55.2 22 -8.4 16.9
13:20 1018 30.06 847 25.01 12.9 55.3 21 -9.1 15.6
13:25 1018 30.06 847 25.01 13.2 55.7 20 -9.5 14.9
13:30 1018 30.06 847 25.01 13.4 56.2 21 -8.7 16.3
13:35 1018 30.06 847 25.01 13.2 55.8 21 -8.7 16.3
13:40 1018 30.06 847 25.01 13.1 55.6 20 -9.3 15.3
13:45 1018 30.06 847 25.01 13.2 55.7 21 -8.9 15.9
13:50 1017 30.03 847 25.01 13.3 56 20 -9 15.9
13:55 1017 30.03 847 25.01 13.1 55.7 21 -8.8 16.2
14:00 1017 30.03 847 25.01 12.9 55.3 21 -8.9 16
14:05 1017 30.03 846 24.98 13.1 55.5 21 -9 15.8
14:10 1017 30.03 846 24.98 13.1 55.6 21 -8.8 16.2
14:15 1017 30.03 846 24.98 13.4 56 22 -8 17.6
14:20 1017 30.03 846 24.98 13.2 55.7 22 -8 17.6
14:25 1017 30.03 846 24.98 12.9 55.3 22 -8.1 17.5
14:30 1017 30.03 846 24.98 12.9 55.2 22 -8.2 17.2
14:35 1017 30.03 846 24.98 12.8 55 22 -8.4 16.9
14:40 1017 30.03 846 24.98 13.2 55.7 23 -7.5 18.4
14:45 1017 30.03 846 24.98 13.4 56.1 22 -7.9 17.8
14:50 1017 30.03 846 24.98 13.3 56 24 -6.8 19.8
14:55 1017 30.03 846 24.98 13.2 55.7 22 -8.1 17.4
15:00 1017 30.03 846 24.98 13.2 55.7 23 -7.4 18.8
15:05 1017 30.03 846 24.98 13 55.3 23 -7.5 18.5
15:10 1017 30.03 846 24.98 12.9 55.2 23 -7.9 17.8
15:15 1017 30.03 846 24.98 12.8 55 25 -6.9 19.6
15:20 1017 30.03 846 24.98 12.5 54.6 24 -7.5 18.6
15:25 1016 30 846 24.98 12.8 55 23 -7.7 18.1
15:30 1016 30 846 24.98 12.9 55.2 24 -7 19.3
15:35 1016 30 846 24.98 12.8 55.1 24 -7.1 19.3
15:40 1016 30 845 24.95 13 55.3 23 -7.4 18.6
15:45 1016 30 845 24.95 13.2 55.7 22 -8 17.5
15:50 1016 30 845 24.95 13.4 56.2 20 -9 15.8
15:55 1016 30 845 24.95 13.7 56.7 21 -8.4 16.9
16:00 1016 30 845 24.95 13.6 56.5 21 -8.5 16.7
16:05 1016 30 845 24.95 13.3 56 21 -8.2 17.2
16:10 1016 30 845 24.95 13.2 55.8 22 -8.2 17.3
16:15 1016 30 845 24.95 13.2 55.7 22 -7.9 17.7
16:20 1016 30 845 24.95 12.8 55.1 23 -7.8 17.9
16:25 1016 30 845 24.95 12.7 54.8 24 -7.6 18.4
16:30 1016 30 845 24.95 12.3 54.2 24 -7.6 18.3
16:35 1016 30 845 24.95 12.1 53.7 24 -8 17.6
16:40 1015 29.97 845 24.95 11.9 53.5 25 -7.7 18.2
16:45 1015 29.97 845 24.95 11.8 53.2 24 -8.2 17.2
16:50 1015 29.97 844 24.92 11.8 53.3 24 -8.2 17.2
16:55 1015 29.97 844 24.92 11.9 53.3 24 -8.1 17.4
17:00 1015 29.97 844 24.92 11.8 53.3 23 -8.8 16.2
17:05 1015 29.97 844 24.92 12 53.5 22 -9.1 15.7
17:10 1015 29.97 844 24.92 12 53.6 23 -8.6 16.5
17:15 1015 29.97 844 24.92 11.8 53.2 24 -8.1 17.5
17:20 1015 29.97 844 24.92 11.5 52.7 25 -8.1 17.5
17:25 1015 29.97 844 24.92 11.5 52.7 23 -8.9 16
17:30 1015 29.97 844 24.92 11.7 53.1 23 -8.7 16.4
17:35 1015 29.97 844 24.92 11.7 53.1 23 -8.5 16.6
17:40 1015 29.97 844 24.92 11.7 53 23 -8.8 16.2
17:45 1015 29.97 844 24.92 11.6 52.8 24 -8.3 17.1
17:50 1015 29.97 844 24.92 11.3 52.4 24 -8.3 17.1
17:55 1015 29.97 844 24.92 11.2 52.1 25 -8.1 17.4
18:00 1015 29.97 844 24.92 11.1 51.9 25 -8.1 17.4
18:05 1014 29.94 844 24.92 11 51.9 24 -8.6 16.5
18:10 1014 29.94 844 24.92 11.1 51.9 25 -8.2 17.3
18:15 1014 29.94 844 24.92 10.9 51.6 25 -8.2 17.3
18:20 1014 29.94 843 24.89 10.7 51.3 26 -7.8 18
18:25 1014 29.94 843 24.89 10.6 51.1 26 -8.1 17.5
18:30 1014 29.94 843 24.89 10.4 50.8 27 -7.9 17.8
18:35 1014 29.94 843 24.89 10.1 50.1 28 -7.5 18.5
18:40 1014 29.94 843 24.89 9.9 49.8 27 -8.1 17.4
18:45 1014 29.94 843 24.89 9.9 49.8 27 -8.2 17.2
18:50 1014 29.94 843 24.89 9.9 49.8 27 -8.3 17
18:55 1014 29.94 843 24.89 9.8 49.7 27 -8.1 17.4
19:00 1014 29.94 843 24.89 9.7 49.5 28 -7.9 17.8
19:05 1014 29.94 843 24.89 9.6 49.2 27 -8.3 17
19:10 1014 29.94 843 24.89 9.5 49.2 28 -8 17.5
19:15 1014 29.94 843 24.89 9.4 48.9 29 -8 17.6
19:20 1013 29.91 843 24.89 9.3 48.7 28 -8.2 17.3
19:25 1013 29.91 843 24.89 9.3 48.7 28 -8.1 17.5
19:30 1013 29.91 842 24.86 9.2 48.6 28 -8.2 17.2
19:35 1013 29.91 842 24.86 9.4 48.8 27 -8.5 16.7
19:40 1013 29.91 842 24.86 9.5 49 28 -8.2 17.3
19:45 1013 29.91 842 24.86 9.1 48.5 30 -7.5 18.5
19:50 1013 29.91 842 24.86 8.7 47.6 30 -8 17.5
19:55 1013 29.91 842 24.86 8.8 47.9 30 -7.9 17.7
20:00 1013 29.91 842 24.86 8.7 47.7 30 -7.8 18
20:05 1013 29.91 842 24.86 8.5 47.4 32 -7.4 18.6
20:10 1013 29.91 842 24.86 8.2 46.8 33 -7.1 19.2
20:15 1012 29.88 842 24.86 8.1 46.5 31 -7.9 17.8
20:20 1012 29.88 842 24.86 8.3 47 31 -7.7 18.1
20:25 1012 29.88 841 24.83 8.6 47.4 29 -8.5 16.8
20:30 1012 29.88 841 24.83 8.9 48 28 -8.4 16.8
20:35 1012 29.88 841 24.83 9 48.3 27 -8.9 15.9
20:40 1012 29.88 841 24.83 9.2 48.6 27 -8.6 16.5
20:45 1012 29.88 841 24.83 9.2 48.6 27 -8.8 16.2
20:50 1012 29.88 841 24.83 9.1 48.5 29 -8 17.6
20:55 1012 29.88 841 24.83 8.7 47.6 31 -7.4 18.6
21:00 1012 29.88 841 24.83 8.2 46.8 32 -7.5 18.6
21:05 1012 29.88 841 24.83 8 46.4 32 -7.8 18
21:10 1012 29.88 841 24.83 8 46.5 31 -8 17.7
21:15 1012 29.88 841 24.83 8.2 46.8 30 -8.4 16.9
21:20 1011 29.85 841 24.83 8.3 47 31 -7.8 17.9
21:25 1011 29.85 841 24.83 8.1 46.6 32 -7.8 18
21:30 1011 29.85 840 24.81 8 46.4 31 -8 17.5
21:35 1011 29.85 840 24.81 8.1 46.6 30 -8.4 16.8
21:40 1011 29.85 840 24.81 8.1 46.7 30 -8.3 17
21:45 1011 29.85 840 24.81 8.1 46.5 30 -8.5 16.7
21:50 1011 29.85 840 24.81 8.2 46.7 29 -8.6 16.4
21:55 1011 29.85 840 24.81 8.2 46.7 29 -8.9 16
22:00 1011 29.85 840 24.81 8.5 47.2 27 -9.6 14.7
22:05 1011 29.85 840 24.81 8.8 47.9 27 -9.4 15.1
22:10 1010 29.83 840 24.81 8.7 47.7 28 -9 15.9
22:15 1010 29.83 839 24.78 8.4 47.2 28 -9 15.8
22:20 1010 29.83 839 24.78 8.2 46.7 28 -9.2 15.4
22:25 1010 29.83 839 24.78 8.4 47.2 26 -10.1 13.9
22:30 1010 29.83 839 24.78 8.5 47.3 26 -9.7 14.5
22:35 1010 29.83 839 24.78 8.6 47.4 27 -9.5 14.8
22:40 1010 29.83 839 24.78 8.5 47.3 28 -9 15.8
22:45 1010 29.83 839 24.78 8.2 46.8 28 -9.3 15.3
22:50 1009 29.8 839 24.78 8.3 46.9 28 -9.2 15.4
22:55 1009 29.8 838 24.75 8.3 46.9 27 -9.6 14.7
23:00 1009 29.8 838 24.75 8.4 47.2 27 -9.5 14.9
23:05 1009 29.8 838 24.75 8.4 47.2 28 -8.9 15.9
23:10 1009 29.8 838 24.75 8.2 46.8 29 -8.9 16.1
23:15 1009 29.8 838 24.75 8.2 46.7 28 -9.2 15.5
23:20 1009 29.8 838 24.75 8.4 47.2 25 -10.3 13.5
23:25 1008 29.77 838 24.75 9 48.3 25 -10.1 13.9
23:30 1008 29.77 837 24.72 9.2 48.5 25 -9.8 14.4
23:35 1008 29.77 837 24.72 9.3 48.7 25 -9.9 14.3
23:40 1008 29.77 837 24.72 9.2 48.6 26 -9.3 15.3
23:45 1008 29.77 837 24.72 9 48.2 26 -9.6 14.8
23:50 1008 29.77 837 24.72 9.1 48.5 25 -9.8 14.4
23:55 1008 29.77 837 24.72 9.1 48.4 25 -9.7 14.6
24:00 1007 29.74 837 24.72 9 48.3 26 -9.5 15